Upstream stations:
Downstream station:
SHEF ID: BRIO2 Canadian River at Bridgeport, OK
STATION TYPE:
Regulating: Stage = 15.00, Flow = 8579
STAGE RIV-FLOW BAT-LOAD
ft cfs volt
Ccp-Rev Ccp-Rev Ccp-Rev
(US/Central)
03/20 00:00 11.33 884 12.49
03/20 01:00 11.30 865 12.41
03/20 02:00 11.32 878 12.41
03/20 03:00 11.36 903 12.41
03/20 04:00 11.33 884 12.33
03/20 05:00 11.39 923 12.33
03/20 06:00 11.39 923 12.25
03/20 07:00 11.39 923 12.25
03/20 08:00 11.43 949 12.33
03/20 09:00 11.41 936 13.21
03/20 10:00 11.37 910 13.21
03/20 11:00 11.36 903 13.05
03/20 12:00 11.37 910 12.97
03/20 13:00 11.32 878 12.89
03/20 14:00 11.32 878 12.81
03/20 15:00 11.36 903 12.81
03/20 16:00 11.32 878 12.73
03/20 17:00 11.30 865 12.73
03/20 18:00 11.28 852 12.73
03/20 19:00 11.27 846 12.73
03/20 20:00 11.29 859 12.65
03/20 21:00 11.32 878 12.65
03/20 22:00 11.30 865 12.57
03/20 23:00 ---- ---- ----